PAWGPAPG

Guest
Details From PAWG - WRANGELL
To PAPG - PETERSBURG JAMES A JOHNSON
Flight Number -
Tags generated
Created
Modified
Stats Distance 28 nm / 52 km
Max Altitude 800 ft / 244 m
Waypoints 3
Social Downloads 1
Likes 0
Share VATSIM

Download

Looking for another format? Having issues loading an existing format? Contact us
Advertisement - Login to hide

Notes

Basic altitude profile: - Ascent Rate: 2500ft/min - Ascent Speed: 250kts - Cruise Altitude: 35000ft - Cruise Speed: 420kts - Descent Rate: 1500ft/min - Descent Speed: 250kts Options: - Use NATs: yes - Use PACOTS: yes - Use low airways: yes - Use high airways: yes

Route

PAWG FPN PAPG

ID Type Via Altitude Latitude Longitude Leg Dist Tot Dist Heading (true) Name
O PAWG APT - 0 ft / 0 m 56.48432˚ -132.36983˚ - 0 nm - WRANGELL
FPN NDB - 800 ft / 244 m 56.79225˚ -132.82097˚ 23 nm 23 nm 321° / 321° FREDERICKS POINT NDB
O PAPG APT - 0 ft / 0 m 56.80165˚ -132.94529˚ 4 nm 27 nm 278° / 278° PETERSBURG JAMES A JOHNSON

Altitude Profile

Advertisement - Login to hide

PAWG

Details ICAO PAWG (WRG)
Name WRANGELL
Region USA (Alaska)
Timezone America/Juneau (UTC-9.0)
Stats Elevation 44 ft / 13 m (AMSL)
Location 56.484324° -132.369832°
Runways 1
Magnetic Variation 18.808° E

METAR

PAWG 151309Z AUTO VRB03KT 10SM -RA FEW021 SCT027 OVC033 04/02 A3004

Decode

TAF

PAWG 151148Z 1512/1612 18005KT P6SM -SHRA BKN027 OVC035 FM151900 13007KT P6SM -SHRA SCT015 OVC025 FM160100 12006KT P6SM OVC050 FM160500 11004KT P6SM VCSH OVC050 FM160900 12012G22KT 6SM -RA BR BKN030 OVC050 AMD LTD TO CLD VIS AND WIND 1512/1515

Decode

Departure Runways

ID Width Length Bearing (true) Bearing (mag) Surface Threshold Offset Overrun Length
10 150 ft / 46 m 5,983 ft / 1,824 m 121.43° 102.62° Asphalt 0 ft / 0 m 0 ft / 0 m
28 150 ft / 46 m 5,983 ft / 1,824 m 301.45° 282.64° Asphalt 0 ft / 0 m 0 ft / 0 m

PAPG

Details ICAO PAPG (PSG)
Name PETERSBURG JAMES A JOHNSON
Region USA (Alaska)
Timezone America/Juneau (UTC-9.0)
Stats Elevation 105 ft / 32 m (AMSL)
Location 56.801651° -132.945289°
Runways 1
Magnetic Variation 18.866° E

METAR

PAPG 151420Z AUTO 00000KT 10SM -RA FEW008 BKN020 OVC060 03/03 RMK AO2 RAB02 P0000 $

Decode

TAF

PAPG 151148Z 1512/1612 16006KT P6SM -SHRA SCT016 BKN027 OVC035 TEMPO 1512/1516 18010G20KT BKN016 OVC025 FM151600 22005KT P6SM VCSH SCT015 OVC035 FM160000 20003KT 6SM -SHRA BR OVC025 FM160500 VRB03KT 4SM BR VCSH OVC020 AMD LTD TO CLD VIS AND WIND 1512/1515

Decode

Destination Runways

ID Width Length Bearing (true) Bearing (mag) Surface Threshold Offset Overrun Length
04 150 ft / 46 m 5,982 ft / 1,823 m 70.70° 51.83° Asphalt 0 ft / 0 m 0 ft / 0 m
22 150 ft / 46 m 5,982 ft / 1,823 m 250.73° 231.86° Asphalt 0 ft / 0 m 0 ft / 0 m

Approach Navaids

Runway Type Ident Frequency Range Bearing (true) Bearing (mag) Slope Elevation
22 Localiser IPSG 110.50 MHz 18 nm / 33 km 185.00° 166.13° - 151 ft / 46 m (AMSL)
22 DME IPSG 110.50 MHz 18 nm / 33 km - - - 164 ft / 50 m (AMSL)

Popular Alternatives